Flight Track Log - Related Links

Times and Time Zones

All times are in EDT time to prevent confusion due to time zone crossing. See the ASQ5861 flight status page for this flight to view local times or setup timezone preferences in your user account.

Time Position Orientation Groundspeed Altitude Reporting Facility
EDT Latitude Longitude Course Direction KTS MPH feet Rate Location/Type
Wed 05:20:14 PM 38.9500 -77.5333 297° West 202 232 2,000  Level Potomac TRACON
Wed 05:21:15 PM 38.9833 -77.6167 297° West 264 304 4,100 2,231 Climbing Potomac TRACON
Wed 05:22:15 PM 39.0167 -77.7000 297° West 282 325 6,500 1,700 Climbing Potomac TRACON
Wed 05:23:15 PM 39.0833 -77.7167 349° North 285 328 7,500 1,053 Climbing Potomac TRACON
Wed 05:24:26 PM 39.1817 -77.7525 344° North 313 360 8,800 955 Climbing Washington Center
Wed 05:25:27 PM 39.2606 -77.7683 351° North 298 343 9,600 1,279 Climbing Washington Center
Wed 05:26:28 PM 39.3383 -77.7356 18° North 280 322 11,400 1,377 Climbing Washington Center
Wed 05:27:29 PM 39.4306 -77.7008 16° North 305 351 12,400 1,271 Climbing Washington Center
Wed 05:28:26 PM 39.5208 -77.6658 17° North 324 373 13,900 1,487 Climbing Washington Center
Wed 05:29:26 PM 39.6172 -77.6281 17° North 345 397 15,300 1,415 Climbing Washington Center
Wed 05:30:29 PM 39.7183 -77.5889 17° North 348 400 16,800 1,220 Climbing New York Center
Wed 05:31:29 PM 39.8061 -77.5514 18° North 353 406 17,800 1,190 Climbing New York Center
Wed 05:32:30 PM 39.9097 -77.5589 357° North 340 391 19,200 1,250 Climbing New York Center
Wed 05:33:29 PM 40.0069 -77.6117 337° Northwest 352 405 20,300 1,150 Climbing New York Center
Wed 05:34:30 PM 40.1056 -77.6703 336° Northwest 365 420 21,500 1,091 Climbing New York Center
Wed 05:35:30 PM 40.1989 -77.7147 340° North 384 442 22,500 1,220 Climbing New York Center
Wed 05:36:28 PM 40.3128 -77.7644 342° North 384 442 23,900 1,261 Climbing New York Center
Wed 05:37:29 PM 40.4142 -77.8128 340° North 384 442 25,000 2,103 Climbing New York Center
Wed 05:39:22 PM 40.6006 -77.8950 341° North 391 450 30,000 1,110 Climbing Cleveland Center
Wed 05:40:22 PM 40.6994 -77.9428 340° North 386 444 28,200 -350 Descending Cleveland Center
Wed 05:41:22 PM 40.8006 -77.9883 341° North 386 444 29,300 900 Climbing Cleveland Center
Wed 05:42:22 PM 40.9019 -78.0364 340° North 386 444 30,000 350 Climbing Cleveland Center
Wed 05:43:22 PM 41.0092 -78.0844 341° North 393 452 30,000  Level Cleveland Center
Wed 05:44:22 PM 41.1250 -78.1325 343° North 413 475 30,000  Level Cleveland Center
Wed 05:45:22 PM 41.2425 -78.1694 347° North 424 488 30,000  Level Cleveland Center
Wed 05:46:22 PM 41.3725 -78.2089 347° North 429 494 30,000  Level Cleveland Center
Wed 05:47:22 PM 41.4919 -78.2378 350° North 435 501 30,000  Level Cleveland Center
Wed 05:48:22 PM 41.6133 -78.2611 352° North 435 501 30,000  Level Cleveland Center
Wed 05:49:22 PM 41.7328 -78.2819 353° North 435 501 30,000  Level Cleveland Center
Wed 05:50:22 PM 41.8561 -78.3056 352° North 435 501 30,000  Level Cleveland Center
Wed 05:51:22 PM 41.9756 -78.3292 352° North 435 501 30,000  Level Cleveland Center
Wed 05:52:22 PM 42.0947 -78.3531 352° North 435 501 30,000  Level Cleveland Center
Wed 05:53:22 PM 42.2183 -78.3822 350° North 435 501 30,000  Level Cleveland Center
Wed 05:54:22 PM 42.3378 -78.4147 349° North 435 501 30,000  Level Cleveland Center
Wed 05:55:22 PM 42.4553 -78.4614 344° North 435 501 30,000 -450 Level Cleveland Center
Wed 05:56:22 PM 42.5753 -78.5192 340° North 441 507 29,100 -950 Descending Cleveland Center
Wed 05:57:22 PM 42.6886 -78.5692 342° North 441 507 28,100 -550 Descending Cleveland Center
Wed 05:58:22 PM 42.8042 -78.6222 341° North 441 507 28,000 -350 Descending Cleveland Center
Wed 05:59:22 PM 42.9236 -78.6667 345° North 441 507 27,400 -800 Descending Cleveland Center
Wed 06:00:22 PM 43.0414 -78.7283 339° North 446 513 26,400 -1,000 Descending Cleveland Center
Wed 06:01:22 PM 43.1014 -78.8344 308° West 430 495 25,400 -1,920 Descending Cleveland Center
Wed 06:02:27 PM 43.1333 -79.0167 284° West 440 506 22,400 -3,216 Descending Toronto Center
Wed 06:03:27 PM 43.1000 -79.1833 255° West 420 483 18,700 -3,350 Descending Toronto Center
Wed 06:04:27 PM 43.1667 -79.2667 318° Northwest 390 449 15,700 -2,450 Descending Toronto Center
Wed 06:05:27 PM 43.2500 -79.3333 330° Northwest 360 414 13,800 -1,450 Descending Toronto Center
Wed 06:06:27 PM 43.3333 -79.4000 330° Northwest 310 357 12,800 -1,100 Descending Toronto Center
Wed 06:07:27 PM 43.4000 -79.4500 331° Northwest 290 334 11,600 -1,300 Descending Toronto Center
Wed 06:08:27 PM 43.4667 -79.5000 331° Northwest 280 322 10,200 -1,500 Descending Toronto Center
Wed 06:09:27 PM 43.5333 -79.5333 340° North 270 311 8,600 -1,500 Descending Toronto Center
Wed 06:10:27 PM 43.6000 -79.5167 10° North 270 311 7,200 -1,450 Descending Toronto Center
Wed 06:11:27 PM 43.6500 -79.4500 44° Northeast 270 311 5,700 -1,450 Descending Toronto Center
Wed 06:12:27 PM 43.7000 -79.3833 44° Northeast 270 311 4,300 -1,300 Descending Toronto Center
Wed 06:13:27 PM 43.7667 -79.4000 350° North 270 311 3,100 -800 Descending Toronto Center
Wed 06:14:27 PM 43.7333 -79.4667 235° Southwest 200 230 2,700 -600 Descending Toronto Center
Wed 06:15:27 PM 43.7000 -79.5167 227° Southwest 180 207 1,900 -850 Descending Toronto Center
Wed 06:16:27 PM 43.6833 -79.5667 245° Southwest 140 161 1,000 -650 Descending Toronto Center
Wed 06:17:27 PM 43.6667 -79.6167 245° Southwest 150 173 600 -400 Descending Toronto Center

Login

Don't have an account? Register now (free) for customized features, flight alerts, and more!